Time;durP1;ratioP1;P1;durP2;ratioP2;P2;SDS_P1;SDS_P2;PMS_P1;PMS_P2;Temp;Humidity;BMP_temperature;BMP_pressure;BME280_temperature;BME280_humidity;BME280_pressure;Samples;Min_cycle;Max_cycle;Signal;HPM_P1;HPM_P2
2021/03/31 00:00:59;;;;;;;7.88;2.80;;;;;;;;;;5072493;28;20017;-17
2021/03/31 00:03:25;;;;;;;6.13;2.83;;;;;;;;;;5072419;28;20119;-17
2021/03/31 00:05:50;;;;;;;6.85;3.17;;;;;;;;;;5072709;28;20036;-18
2021/03/31 00:08:15;;;;;;;5.72;2.50;;;;;;;;;;5072701;28;20527;-18
2021/03/31 00:10:46;;;;;;;4.78;3.58;;;;;;;;;;5072579;28;20028;-18
2021/03/31 00:13:12;;;;;;;3.72;3.20;;;;;;;;;;5072425;28;20051;-18
2021/03/31 00:15:38;;;;;;;7.32;3.30;;;;;;;;;;5071032;28;20063;-18
2021/03/31 00:18:07;;;;;;;9.93;4.80;;;;;;;;;;5072268;28;20028;-17
2021/03/31 00:20:33;;;;;;;4.45;3.33;;;;;;;;;;5072610;28;20024;-18
2021/03/31 00:22:59;;;;;;;3.63;3.00;;;;;;;;;;5072326;28;20024;-18
2021/03/31 00:25:24;;;;;;;6.20;3.05;;;;;;;;;;5071943;28;20053;-18
2021/03/31 00:27:49;;;;;;;6.07;3.45;;;;;;;;;;5072184;28;20025;-18
2021/03/31 00:30:16;;;;;;;4.90;3.15;;;;;;;;;;5072351;28;20032;-18
2021/03/31 00:32:42;;;;;;;6.32;3.10;;;;;;;;;;5071989;28;20483;-17
2021/03/31 00:35:08;;;;;;;4.57;3.35;;;;;;;;;;5072240;28;20099;-17
2021/03/31 00:37:34;;;;;;;6.20;2.85;;;;;;;;;;5072194;28;20115;-18
2021/03/31 00:40:00;;;;;;;5.35;3.15;;;;;;;;;;5072887;28;20071;-18
2021/03/31 00:42:25;;;;;;;5.63;3.30;;;;;;;;;;5076667;28;20494;-18
2021/03/31 00:44:51;;;;;;;4.88;3.22;;;;;;;;;;5076260;28;20029;-17
2021/03/31 00:47:16;;;;;;;5.10;2.88;;;;;;;;;;5076262;28;20497;-17
2021/03/31 00:49:41;;;;;;;6.80;4.22;;;;;;;;;;5076090;28;20029;-17
2021/03/31 00:52:07;;;;;;;4.07;2.80;;;;;;;;;;5076104;28;20064;-17
2021/03/31 00:54:33;;;;;;;5.72;3.25;;;;;;;;;;5058100;28;20031;-17
2021/03/31 00:56:58;;;;;;;8.27;2.95;;;;;;;;;;5075906;28;20020;-19
2021/03/31 00:59:24;;;;;;;4.95;2.90;;;;;;;;;;5076335;28;20044;-17
2021/03/31 01:01:49;;;;;;;9.82;3.55;;;;;;;;;;5075879;28;20028;-17
2021/03/31 01:04:14;;;;;;;7.55;3.00;;;;;;;;;;5075814;28;20082;-18
2021/03/31 01:06:40;;;;;;;5.28;3.08;;;;;;;;;;5075648;28;20394;-18
2021/03/31 01:09:06;;;;;;;7.03;3.30;;;;;;;;;;5075847;28;20162;-18
2021/03/31 01:11:47;;;;;;;8.88;3.00;;;;;;;;;;5075803;28;20029;-18
2021/03/31 01:14:13;;;;;;;5.32;3.35;;;;;;;;;;5074482;28;20078;-18
2021/03/31 01:16:46;;;;;;;6.20;3.03;;;;;;;;;;5075495;28;20017;-19
2021/03/31 01:19:30;;;;;;;6.38;3.15;;;;;;;;;;5075594;28;20041;-18
2021/03/31 01:22:04;;;;;;;7.03;2.80;;;;;;;;;;5075368;28;20495;-18
2021/03/31 01:24:38;;;;;;;5.28;2.92;;;;;;;;;;5075270;28;20037;-18
2021/03/31 01:27:10;;;;;;;4.63;3.20;;;;;;;;;;5075383;28;20041;-18
2021/03/31 01:29:41;;;;;;;5.10;3.70;;;;;;;;;;5075174;28;20034;-18
2021/03/31 01:32:24;;;;;;;5.85;2.80;;;;;;;;;;5075379;28;20111;-17
2021/03/31 01:34:51;;;;;;;3.55;2.40;;;;;;;;;;5075190;28;20051;-19
2021/03/31 01:37:21;;;;;;;9.73;3.25;;;;;;;;;;5075172;28;20032;-18
2021/03/31 01:39:48;;;;;;;4.95;3.50;;;;;;;;;;5075133;28;20559;-18
2021/03/31 01:42:14;;;;;;;4.03;2.88;;;;;;;;;;5075090;28;20027;-17
2021/03/31 01:44:41;;;;;;;2.83;2.55;;;;;;;;;;5074866;28;20505;-18
2021/03/31 01:47:07;;;;;;;8.05;3.65;;;;;;;;;;5075062;28;20028;-17
2021/03/31 01:49:33;;;;;;;4.38;2.92;;;;;;;;;;5075278;28;20040;-18
2021/03/31 01:52:00;;;;;;;3.95;2.95;;;;;;;;;;5073795;28;20017;-18
2021/03/31 01:54:27;;;;;;;5.30;3.10;;;;;;;;;;5074966;28;20028;-18
2021/03/31 01:56:53;;;;;;;7.53;3.58;;;;;;;;;;5074729;28;20008;-18
2021/03/31 01:59:19;;;;;;;5.45;3.13;;;;;;;;;;5075191;28;20040;-17
2021/03/31 02:01:46;;;;;;;4.38;3.08;;;;;;;;;;5074846;28;20024;-17
2021/03/31 02:04:12;;;;;;;7.85;2.90;;;;;;;;;;5074914;28;20036;-18
2021/03/31 02:06:38;;;;;;;4.72;3.08;;;;;;;;;;5074411;28;20073;-18
2021/03/31 02:09:04;;;;;;;6.50;2.90;;;;;;;;;;5074655;28;20040;-17
2021/03/31 02:11:30;;;;;;;6.65;3.28;;;;;;;;;;5074621;28;20095;-18
2021/03/31 02:13:59;;;;;;;4.15;2.70;;;;;;;;;;5074950;28;20119;-18
2021/03/31 02:16:25;;;;;;;6.95;2.78;;;;;;;;;;5074821;28;20015;-18
2021/03/31 02:18:52;;;;;;;7.53;3.00;;;;;;;;;;5074449;28;20033;-18
2021/03/31 02:21:18;;;;;;;6.15;2.53;;;;;;;;;;5073774;28;20020;-19
2021/03/31 02:23:43;;;;;;;4.25;3.28;;;;;;;;;;5067998;28;20047;-18
2021/03/31 02:26:09;;;;;;;6.18;2.40;;;;;;;;;;5064139;28;20041;-18
2021/03/31 02:28:35;;;;;;;8.98;3.63;;;;;;;;;;5074625;28;20028;-18
2021/03/31 02:31:00;;;;;;;5.68;3.05;;;;;;;;;;5057163;28;20029;-18
2021/03/31 02:33:27;;;;;;;3.35;2.67;;;;;;;;;;5066145;28;20033;-18
2021/03/31 02:35:52;;;;;;;8.38;3.10;;;;;;;;;;5074251;28;20096;-18
2021/03/31 02:38:18;;;;;;;10.68;3.38;;;;;;;;;;5073997;28;20107;-17
2021/03/31 02:40:45;;;;;;;4.55;2.75;;;;;;;;;;5073978;28;20017;-17
2021/03/31 02:43:12;;;;;;;4.18;2.47;;;;;;;;;;5074109;28;20025;-18
2021/03/31 02:45:38;;;;;;;6.82;2.78;;;;;;;;;;5074113;28;20116;-18
2021/03/31 02:48:05;;;;;;;9.15;2.67;;;;;;;;;;5073993;28;20544;-18
2021/03/31 02:50:31;;;;;;;3.72;2.78;;;;;;;;;;5074230;28;20020;-17
2021/03/31 02:52:57;;;;;;;4.50;2.90;;;;;;;;;;5073940;28;20563;-18
2021/03/31 02:55:23;;;;;;;4.43;3.05;;;;;;;;;;5073729;28;20490;-19
2021/03/31 02:57:49;;;;;;;4.70;3.15;;;;;;;;;;5073696;28;20028;-18
2021/03/31 03:00:15;;;;;;;6.68;3.10;;;;;;;;;;5073712;28;20024;-17
2021/03/31 03:02:41;;;;;;;5.50;3.42;;;;;;;;;;5073345;28;20036;-18
2021/03/31 03:05:09;;;;;;;5.55;2.95;;;;;;;;;;5073553;28;20052;-17
2021/03/31 03:07:35;;;;;;;6.22;2.78;;;;;;;;;;5073598;28;20032;-17
2021/03/31 03:10:01;;;;;;;5.35;2.67;;;;;;;;;;5073505;28;20104;-17
2021/03/31 03:12:27;;;;;;;6.07;3.58;;;;;;;;;;5073540;28;20107;-17
2021/03/31 03:14:52;;;;;;;8.63;3.33;;;;;;;;;;5073513;28;20440;-17
2021/03/31 03:17:18;;;;;;;7.35;3.10;;;;;;;;;;5073366;28;20028;-17
2021/03/31 03:19:44;;;;;;;3.60;3.13;;;;;;;;;;5073270;28;20082;-18
2021/03/31 03:22:10;;;;;;;5.28;2.92;;;;;;;;;;5071981;28;20112;-17
2021/03/31 03:24:36;;;;;;;4.72;2.90;;;;;;;;;;5073127;28;20054;-18
2021/03/31 03:27:02;;;;;;;4.75;2.65;;;;;;;;;;5073093;28;20048;-18
2021/03/31 03:29:27;;;;;;;5.95;3.15;;;;;;;;;;5073094;28;20032;-17
2021/03/31 03:31:54;;;;;;;4.72;2.65;;;;;;;;;;5072972;28;20353;-17
2021/03/31 03:34:19;;;;;;;5.00;2.95;;;;;;;;;;5073086;28;20070;-18
2021/03/31 03:36:45;;;;;;;5.05;3.28;;;;;;;;;;5072811;28;20506;-18
2021/03/31 03:39:11;;;;;;;4.65;2.75;;;;;;;;;;5073049;28;20020;-17
2021/03/31 03:41:36;;;;;;;5.43;2.88;;;;;;;;;;5072791;28;20056;-17
2021/03/31 03:44:01;;;;;;;6.53;2.58;;;;;;;;;;5072975;28;20078;-18
2021/03/31 03:46:29;;;;;;;3.53;2.85;;;;;;;;;;5073117;28;20029;-17
2021/03/31 03:48:58;;;;;;;4.88;2.85;;;;;;;;;;5072634;28;20519;-18
2021/03/31 03:51:23;;;;;;;3.92;2.78;;;;;;;;;;5072637;28;20112;-17
2021/03/31 03:53:49;;;;;;;6.13;3.17;;;;;;;;;;5072589;28;20048;-18
2021/03/31 03:56:14;;;;;;;7.43;3.55;;;;;;;;;;5072621;28;20028;-18
2021/03/31 03:58:39;;;;;;;6.95;2.75;;;;;;;;;;5072856;28;20561;-18
2021/03/31 04:01:05;;;;;;;3.85;3.03;;;;;;;;;;5072613;28;20078;-17
2021/03/31 04:03:31;;;;;;;12.32;3.30;;;;;;;;;;5072590;28;20004;-17
2021/03/31 04:05:56;;;;;;;3.50;2.47;;;;;;;;;;5072409;28;20036;-18
2021/03/31 04:08:21;;;;;;;5.97;3.28;;;;;;;;;;5072554;28;20020;-19
2021/03/31 04:10:51;;;;;;;3.88;2.80;;;;;;;;;;5072470;28;20040;-18
2021/03/31 04:13:17;;;;;;;5.32;2.85;;;;;;;;;;5072660;28;20017;-18
2021/03/31 04:15:43;;;;;;;3.20;2.72;;;;;;;;;;5071998;28;20101;-18
2021/03/31 04:18:10;;;;;;;9.98;2.78;;;;;;;;;;5072613;28;20030;-18
2021/03/31 04:20:37;;;;;;;6.40;2.88;;;;;;;;;;5072362;28;20028;-18
2021/03/31 04:23:02;;;;;;;5.55;3.10;;;;;;;;;;5072406;28;20020;-17
2021/03/31 04:25:27;;;;;;;6.28;3.08;;;;;;;;;;5071865;28;20113;-17
2021/03/31 04:27:54;;;;;;;6.20;2.72;;;;;;;;;;5072263;28;20052;-17
2021/03/31 04:30:20;;;;;;;6.32;2.67;;;;;;;;;;5072229;28;20036;-18
2021/03/31 04:32:50;;;;;;;3.80;2.55;;;;;;;;;;5072310;28;20020;-17
2021/03/31 04:35:19;;;;;;;6.78;2.90;;;;;;;;;;5072216;28;20111;-17
2021/03/31 04:37:45;;;;;;;5.38;2.85;;;;;;;;;;5072094;28;20013;-17
2021/03/31 04:40:11;;;;;;;9.82;2.50;;;;;;;;;;5071008;28;20384;-17
2021/03/31 04:42:36;;;;;;;2.95;2.45;;;;;;;;;;5072176;28;20013;-17
2021/03/31 04:45:03;;;;;;;4.00;2.92;;;;;;;;;;5072011;28;20105;-17
2021/03/31 04:47:28;;;;;;;5.25;2.67;;;;;;;;;;5072097;28;20047;-18
2021/03/31 04:49:54;;;;;;;8.73;2.78;;;;;;;;;;5071975;28;20052;-17
2021/03/31 04:52:19;;;;;;;3.88;2.30;;;;;;;;;;5072178;28;20025;-17
2021/03/31 04:54:44;;;;;;;3.47;2.90;;;;;;;;;;5071881;28;20036;-18
2021/03/31 04:57:10;;;;;;;5.57;2.92;;;;;;;;;;5072009;28;20021;-18
2021/03/31 04:59:35;;;;;;;2.88;2.22;;;;;;;;;;5072345;28;20036;-18
2021/03/31 05:02:00;;;;;;;8.98;2.63;;;;;;;;;;5072077;28;20030;-17
2021/03/31 05:04:26;;;;;;;4.38;3.08;;;;;;;;;;5071804;28;20406;-18
2021/03/31 05:06:51;;;;;;;8.88;2.53;;;;;;;;;;5071874;28;20012;-18
2021/03/31 05:09:17;;;;;;;5.22;3.00;;;;;;;;;;5072102;28;20055;-18
2021/03/31 05:11:42;;;;;;;6.97;3.10;;;;;;;;;;5071881;28;20013;-17
2021/03/31 05:14:08;;;;;;;7.70;2.60;;;;;;;;;;5072014;28;20043;-17
2021/03/31 05:16:33;;;;;;;5.30;2.75;;;;;;;;;;5071845;28;20455;-17
2021/03/31 05:18:58;;;;;;;2.67;2.20;;;;;;;;;;5071705;28;20111;-18
2021/03/31 05:21:24;;;;;;;3.47;2.28;;;;;;;;;;5071767;28;20013;-17
2021/03/31 05:23:49;;;;;;;5.40;2.75;;;;;;;;;;5071547;28;20040;-17
2021/03/31 05:26:16;;;;;;;4.10;2.78;;;;;;;;;;5072530;28;20060;-18
2021/03/31 05:28:41;;;;;;;6.57;2.40;;;;;;;;;;5057480;28;20029;-17
2021/03/31 05:31:07;;;;;;;8.27;2.50;;;;;;;;;;5075456;28;20493;-17
2021/03/31 05:33:32;;;;;;;6.78;2.60;;;;;;;;;;5075350;28;20413;-18
2021/03/31 05:35:57;;;;;;;8.65;3.03;;;;;;;;;;5075490;28;20024;-18
2021/03/31 05:38:23;;;;;;;4.53;2.30;;;;;;;;;;5075550;28;20124;-17
2021/03/31 05:40:48;;;;;;;7.55;2.65;;;;;;;;;;5075043;28;20558;-17
2021/03/31 05:43:15;;;;;;;6.70;2.65;;;;;;;;;;5075204;28;20025;-17
2021/03/31 05:45:42;;;;;;;4.45;2.50;;;;;;;;;;5075129;28;20365;-17
2021/03/31 05:48:07;;;;;;;4.75;2.88;;;;;;;;;;5075419;28;20079;-17
2021/03/31 05:50:33;;;;;;;4.07;2.50;;;;;;;;;;5075432;28;20448;-17
2021/03/31 05:52:58;;;;;;;5.35;2.40;;;;;;;;;;5074732;28;20036;-17
2021/03/31 05:55:24;;;;;;;3.83;2.80;;;;;;;;;;5074555;28;20024;-17
2021/03/31 05:57:49;;;;;;;5.55;2.17;;;;;;;;;;5074806;28;20036;-19
2021/03/31 06:00:16;;;;;;;4.70;2.72;;;;;;;;;;5074926;28;20027;-19
2021/03/31 06:02:42;;;;;;;4.15;2.33;;;;;;;;;;5075088;28;20028;-17
2021/03/31 06:05:08;;;;;;;7.47;3.25;;;;;;;;;;5073429;28;20028;-18
2021/03/31 06:07:33;;;;;;;6.53;2.78;;;;;;;;;;5074775;28;20071;-17
2021/03/31 06:10:06;;;;;;;6.82;2.70;;;;;;;;;;5074931;28;20028;-17
2021/03/31 06:12:33;;;;;;;4.32;3.08;;;;;;;;;;5073428;28;20029;-17
2021/03/31 06:15:20;;;;;;;4.22;2.63;;;;;;;;;;5073355;28;20108;-17
2021/03/31 06:17:51;;;;;;;5.95;3.20;;;;;;;;;;5074578;28;20039;-17
2021/03/31 06:20:35;;;;;;;5.05;3.10;;;;;;;;;;5073250;28;20025;-18
2021/03/31 06:26:17;;;;;;;15.10;2.72;;;;;;;;;;5051893;28;20061;-17
2021/03/31 06:28:43;;;;;;;3.55;2.47;;;;;;;;;;5051772;28;20068;-16
2021/03/31 06:31:12;;;;;;;3.72;2.25;;;;;;;;;;5064276;28;20452;-17
2021/03/31 06:33:39;;;;;;;4.72;2.22;;;;;;;;;;5074231;28;20036;-17
2021/03/31 06:36:06;;;;;;;3.63;2.30;;;;;;;;;;5074239;28;20021;-18
2021/03/31 06:38:32;;;;;;;5.85;2.50;;;;;;;;;;5073568;28;20493;-18
2021/03/31 06:41:09;;;;;;;5.15;2.67;;;;;;;;;;5074238;28;20375;-18
2021/03/31 06:43:40;;;;;;;6.10;3.17;;;;;;;;;;5074228;28;20379;-18
2021/03/31 06:46:12;;;;;;;3.13;2.60;;;;;;;;;;5074020;28;20039;-18
2021/03/31 06:48:43;;;;;;;3.03;2.20;;;;;;;;;;5073993;28;20084;-18
2021/03/31 06:51:25;;;;;;;11.02;3.03;;;;;;;;;;5074193;28;20513;-18
2021/03/31 06:53:50;;;;;;;6.15;2.33;;;;;;;;;;5072466;28;20032;-19
2021/03/31 06:56:24;;;;;;;2.70;2.10;;;;;;;;;;5073793;28;20190;-19
2021/03/31 06:58:55;;;;;;;5.32;2.90;;;;;;;;;;5072444;28;20028;-18
2021/03/31 07:01:24;;;;;;;5.57;2.72;;;;;;;;;;5073980;28;20032;-18
2021/03/31 07:03:50;;;;;;;3.47;2.10;;;;;;;;;;5073747;28;20024;-19
2021/03/31 07:06:18;;;;;;;6.20;2.47;;;;;;;;;;5073485;28;20170;-18
2021/03/31 07:08:43;;;;;;;5.57;2.22;;;;;;;;;;5073516;28;20013;-18
2021/03/31 07:11:09;;;;;;;4.60;2.53;;;;;;;;;;5073489;28;20024;-18
2021/03/31 07:13:35;;;;;;;5.55;2.95;;;;;;;;;;5073568;28;20387;-18
2021/03/31 07:16:04;;;;;;;5.45;2.53;;;;;;;;;;5073620;28;20048;-17
2021/03/31 07:18:31;;;;;;;5.57;2.40;;;;;;;;;;5073264;28;20020;-18
2021/03/31 07:20:57;;;;;;;3.45;1.75;;;;;;;;;;5072038;28;20040;-18
2021/03/31 07:23:24;;;;;;;5.72;2.38;;;;;;;;;;5073234;28;20013;-18
2021/03/31 07:25:50;;;;;;;6.57;1.90;;;;;;;;;;5073083;28;20110;-18
2021/03/31 07:28:26;;;;;;;5.63;2.15;;;;;;;;;;5073291;28;20037;-18
2021/03/31 07:30:52;;;;;;;4.47;2.50;;;;;;;;;;5072990;28;20020;-18
2021/03/31 07:33:20;;;;;;;4.70;2.05;;;;;;;;;;5073191;28;20082;-18
2021/03/31 07:35:46;;;;;;;3.88;2.17;;;;;;;;;;5072932;28;20036;-18
2021/03/31 07:38:13;;;;;;;3.15;2.45;;;;;;;;;;5073247;28;20379;-18
2021/03/31 07:40:39;;;;;;;2.92;1.45;;;;;;;;;;5072935;28;20024;-19
2021/03/31 07:43:04;;;;;;;3.72;2.38;;;;;;;;;;5072874;28;20505;-16
2021/03/31 07:45:31;;;;;;;4.20;2.00;;;;;;;;;;5073002;28;20059;-16
2021/03/31 07:47:57;;;;;;;4.57;2.90;;;;;;;;;;5072760;28;20375;-16
2021/03/31 07:50:23;;;;;;;4.20;2.13;;;;;;;;;;5070864;28;20031;-16
2021/03/31 07:52:53;;;;;;;5.40;2.38;;;;;;;;;;5072809;28;20021;-18
2021/03/31 07:55:37;;;;;;;4.07;1.77;;;;;;;;;;5072679;28;20047;-19
2021/03/31 07:58:21;;;;;;;3.25;1.77;;;;;;;;;;5072450;28;20033;-18
2021/03/31 08:03:15;;;;;;;3.88;2.35;;;;;;;;;;5072905;28;20061;-19
2021/03/31 08:05:59;;;;;;;3.08;2.00;;;;;;;;;;5071098;28;20135;-17
2021/03/31 08:08:25;;;;;;;4.72;2.13;;;;;;;;;;5072479;28;20020;-17
2021/03/31 08:10:50;;;;;;;6.32;2.60;;;;;;;;;;5072374;28;20047;-17
2021/03/31 08:13:25;;;;;;;2.60;1.65;;;;;;;;;;5072759;28;20028;-18
2021/03/31 08:15:50;;;;;;;9.00;2.38;;;;;;;;;;5072305;28;20025;-17
2021/03/31 08:18:16;;;;;;;4.00;2.45;;;;;;;;;;5072397;28;20042;-17
2021/03/31 08:20:41;;;;;;;5.75;2.05;;;;;;;;;;5072229;28;20040;-17
2021/03/31 08:23:06;;;;;;;2.22;1.65;;;;;;;;;;5072416;28;20032;-18
2021/03/31 08:25:32;;;;;;;4.45;1.95;;;;;;;;;;5071356;28;20452;-17
2021/03/31 08:27:59;;;;;;;6.15;1.70;;;;;;;;;;4707605;28;9999724;-18
2021/03/31 08:30:25;;;;;;;4.60;2.15;;;;;;;;;;5048744;28;20100;-18
2021/03/31 08:32:53;;;;;;;4.78;1.90;;;;;;;;;;5048552;28;20067;-18
2021/03/31 08:35:20;;;;;;;6.75;2.35;;;;;;;;;;5047427;28;20132;-19
2021/03/31 08:37:50;;;;;;;2.78;2.03;;;;;;;;;;5048448;28;20019;-19
2021/03/31 08:40:16;;;;;;;2.25;1.63;;;;;;;;;;5047412;28;20033;-19
2021/03/31 08:42:49;;;;;;;3.80;1.73;;;;;;;;;;5048151;28;20024;-19
2021/03/31 08:45:24;;;;;;;7.33;2.00;;;;;;;;;;5048425;28;20082;-16
2021/03/31 08:47:49;;;;;;;5.13;1.60;;;;;;;;;;5053325;28;20024;-17
2021/03/31 08:50:23;;;;;;;3.40;1.80;;;;;;;;;;5068227;28;20021;-20
2021/03/31 08:52:56;;;;;;;2.08;1.63;;;;;;;;;;5064272;28;20376;-20
2021/03/31 08:55:21;;;;;;;2.47;1.45;;;;;;;;;;5048146;28;20028;-19
2021/03/31 08:57:47;;;;;;;2.92;2.17;;;;;;;;;;5047954;28;20021;-20
2021/03/31 09:00:13;;;;;;;6.35;2.95;;;;;;;;;;5047770;28;20033;-20
2021/03/31 09:02:41;;;;;;;4.45;2.00;;;;;;;;;;5051318;28;20016;-21
2021/03/31 09:05:07;;;;;;;2.88;1.95;;;;;;;;;;5056295;28;20045;-19
2021/03/31 09:07:33;;;;;;;2.78;1.40;;;;;;;;;;5058222;28;20026;-17
2021/03/31 09:09:59;;;;;;;6.18;2.22;;;;;;;;;;5072456;28;20032;-17
2021/03/31 09:12:25;;;;;;;4.88;1.45;;;;;;;;;;5070424;28;20027;-17
2021/03/31 09:14:52;;;;;;;3.17;1.88;;;;;;;;;;5071060;28;20071;-17
2021/03/31 09:17:22;;;;;;;3.25;1.60;;;;;;;;;;5071890;28;20024;-18
2021/03/31 09:19:52;;;;;;;3.63;2.22;;;;;;;;;;5071815;28;20039;-19
2021/03/31 09:22:18;;;;;;;5.00;2.05;;;;;;;;;;5070734;28;20044;-18
2021/03/31 09:24:44;;;;;;;4.60;2.40;;;;;;;;;;5071683;28;20086;-19
2021/03/31 09:27:13;;;;;;;2.92;1.60;;;;;;;;;;5066352;28;20053;-18
2021/03/31 09:29:45;;;;;;;3.13;2.03;;;;;;;;;;5062787;28;20056;-17
2021/03/31 09:32:14;;;;;;;3.38;1.80;;;;;;;;;;5071501;28;20016;-17
2021/03/31 09:34:39;;;;;;;2.85;1.65;;;;;;;;;;5071711;28;20479;-17
2021/03/31 09:37:08;;;;;;;3.22;1.65;;;;;;;;;;5072121;28;20050;-17
2021/03/31 09:39:53;;;;;;;6.05;1.25;;;;;;;;;;5071520;28;20024;-17
2021/03/31 09:42:28;;;;;;;2.35;1.60;;;;;;;;;;5071726;28;20036;-22
2021/03/31 09:44:54;;;;;;;2.53;1.73;;;;;;;;;;5071532;28;20066;-17
2021/03/31 09:47:21;;;;;;;2.92;1.90;;;;;;;;;;5071882;28;20107;-17
2021/03/31 09:49:50;;;;;;;3.63;1.63;;;;;;;;;;5071519;28;20090;-17
2021/03/31 09:52:16;;;;;;;2.53;1.67;;;;;;;;;;5071549;28;20020;-17
2021/03/31 09:54:46;;;;;;;5.45;1.75;;;;;;;;;;5071925;28;20029;-19
2021/03/31 09:57:12;;;;;;;3.50;1.48;;;;;;;;;;5071677;28;20116;-17
2021/03/31 09:59:38;;;;;;;5.35;1.73;;;;;;;;;;5071115;28;20074;-17
2021/03/31 10:02:04;;;;;;;2.03;1.83;;;;;;;;;;5070796;28;20067;-17
2021/03/31 10:04:34;;;;;;;3.80;2.05;;;;;;;;;;5071558;28;20513;-18
2021/03/31 10:07:06;;;;;;;2.58;1.52;;;;;;;;;;5071208;28;20116;-18
2021/03/31 10:09:58;;;;;;;0.90;0.82;;;;;;;;;;5070984;28;20086;-18
2021/03/31 10:12:27;;;;;;;2.65;1.40;;;;;;;;;;5067199;28;20226;-18
2021/03/31 10:14:54;;;;;;;8.30;1.85;;;;;;;;;;5070509;28;20107;-18
2021/03/31 10:17:21;;;;;;;3.75;1.70;;;;;;;;;;5071090;28;20078;-18
2021/03/31 10:19:47;;;;;;;2.33;1.35;;;;;;;;;;5070671;28;20442;-17
2021/03/31 10:22:13;;;;;;;7.05;2.00;;;;;;;;;;5070670;28;20086;-18
2021/03/31 10:24:40;;;;;;;2.75;1.45;;;;;;;;;;5070706;28;20032;-18
2021/03/31 10:27:06;;;;;;;4.38;1.52;;;;;;;;;;5062180;28;20049;-18
2021/03/31 10:29:31;;;;;;;2.10;1.30;;;;;;;;;;5050269;28;20033;-18
2021/03/31 10:31:59;;;;;;;3.95;1.27;;;;;;;;;;5049987;28;20033;-18
2021/03/31 10:34:35;;;;;;;3.55;1.77;;;;;;;;;;5063871;28;20063;-18
2021/03/31 10:47:26;;;;;;;2.38;1.77;;;;;;;;;;5074123;28;20032;-18
2021/03/31 10:49:55;;;;;;;2.65;1.60;;;;;;;;;;5073918;28;20039;-17
2021/03/31 10:54:46;;;;;;;9.15;1.08;;;;;;;;;;5073652;28;20028;-18
2021/03/31 10:57:12;;;;;;;3.78;1.52;;;;;;;;;;5073786;28;20048;-18
2021/03/31 10:59:38;;;;;;;3.42;1.40;;;;;;;;;;5074113;28;20074;-18
2021/03/31 11:02:04;;;;;;;1.70;1.23;;;;;;;;;;5072448;28;20040;-17
2021/03/31 11:04:29;;;;;;;2.58;1.33;;;;;;;;;;5073626;28;20055;-18
2021/03/31 11:06:55;;;;;;;3.45;1.70;;;;;;;;;;5073525;28;20028;-17
2021/03/31 11:09:20;;;;;;;2.97;1.55;;;;;;;;;;5073606;28;20169;-17
2021/03/31 11:11:46;;;;;;;1.20;0.85;;;;;;;;;;5073385;28;20024;-17
2021/03/31 11:14:12;;;;;;;4.53;1.35;;;;;;;;;;5073421;28;20032;-17
2021/03/31 11:16:41;;;;;;;1.60;1.20;;;;;;;;;;5073472;28;20475;-18
2021/03/31 11:19:47;;;;;;;5.47;1.23;;;;;;;;;;5072282;28;20020;-17
2021/03/31 11:27:27;;;;;;;7.75;2.00;;;;;;;;;;5073456;28;20033;-17
2021/03/31 11:29:52;;;;;;;1.40;0.95;;;;;;;;;;5072940;28;20024;-18
2021/03/31 11:32:17;;;;;;;3.08;1.58;;;;;;;;;;5073442;28;20348;-17
2021/03/31 11:34:43;;;;;;;2.38;1.25;;;;;;;;;;5073139;28;20026;-17
2021/03/31 11:37:08;;;;;;;1.10;0.60;;;;;;;;;;5073037;28;20111;-17
2021/03/31 11:39:34;;;;;;;6.82;2.10;;;;;;;;;;5072993;28;20028;-18
2021/03/31 11:41:59;;;;;;;3.15;0.77;;;;;;;;;;5073112;28;20028;-18
2021/03/31 11:44:25;;;;;;;2.92;1.20;;;;;;;;;;5073067;28;20035;-17
2021/03/31 11:46:50;;;;;;;1.75;0.80;;;;;;;;;;5072708;28;20028;-18
2021/03/31 11:49:15;;;;;;;2.15;1.33;;;;;;;;;;5054933;28;20059;-18
2021/03/31 11:51:42;;;;;;;3.58;2.03;;;;;;;;;;5071495;28;20040;-18
2021/03/31 11:54:08;;;;;;;3.33;1.90;;;;;;;;;;5071320;28;20028;-18
2021/03/31 11:56:33;;;;;;;4.50;1.83;;;;;;;;;;5072955;28;20021;-18
2021/03/31 11:58:59;;;;;;;5.88;1.20;;;;;;;;;;5072641;28;20382;-17
2021/03/31 12:01:25;;;;;;;0.25;0.25;;;;;;;;;;5072702;28;20604;-17
2021/03/31 12:03:50;;;;;;;1.88;0.80;;;;;;;;;;5072490;28;20019;-17
2021/03/31 12:06:16;;;;;;;2.60;0.57;;;;;;;;;;5072572;28;20479;-17
2021/03/31 12:08:46;;;;;;;2.75;2.03;;;;;;;;;;5072576;28;20016;-17
2021/03/31 12:11:13;;;;;;;7.68;2.08;;;;;;;;;;5072444;28;20060;-17
2021/03/31 12:13:38;;;;;;;3.50;2.00;;;;;;;;;;5070387;28;20082;-20
2021/03/31 12:16:06;;;;;;;1.30;1.20;;;;;;;;;;4719814;27;10000499;-19
2021/03/31 12:18:34;;;;;;;2.13;1.67;;;;;;;;;;5067424;28;20062;-19
2021/03/31 12:21:01;;;;;;;6.53;3.03;;;;;;;;;;5068535;28;20033;-19
2021/03/31 12:23:27;;;;;;;5.72;1.65;;;;;;;;;;5068583;28;20012;-18
2021/03/31 12:25:52;;;;;;;2.65;1.58;;;;;;;;;;5067965;28;20509;-18
2021/03/31 12:28:21;;;;;;;6.25;1.77;;;;;;;;;;5067421;28;20040;-18
2021/03/31 12:30:47;;;;;;;2.35;1.17;;;;;;;;;;5068717;28;20027;-18
2021/03/31 12:33:12;;;;;;;5.40;2.03;;;;;;;;;;5068818;28;20475;-18
2021/03/31 12:35:38;;;;;;;1.95;0.77;;;;;;;;;;5068349;28;20047;-18
2021/03/31 12:38:03;;;;;;;8.23;2.25;;;;;;;;;;5068651;28;20056;-17
2021/03/31 12:40:29;;;;;;;10.32;2.10;;;;;;;;;;5068721;28;20107;-19
2021/03/31 12:42:54;;;;;;;2.05;1.17;;;;;;;;;;5068320;28;20126;-20
2021/03/31 12:45:19;;;;;;;1.30;1.00;;;;;;;;;;5068057;28;20485;-17
2021/03/31 12:47:45;;;;;;;2.58;1.27;;;;;;;;;;5068341;28;20024;-17
2021/03/31 12:50:14;;;;;;;0.40;0.40;;;;;;;;;;5066516;28;20032;-17
2021/03/31 12:52:48;;;;;;;2.80;0.80;;;;;;;;;;5068011;28;20017;-17
2021/03/31 12:55:27;;;;;;;1.42;0.88;;;;;;;;;;5068299;28;20032;-16
2021/03/31 12:57:57;;;;;;;0.43;0.43;;;;;;;;;;5068113;28;20027;-18
2021/03/31 13:00:23;;;;;;;2.70;0.95;;;;;;;;;;5064309;28;20021;-17
2021/03/31 13:02:49;;;;;;;7.80;2.55;;;;;;;;;;5047723;28;20025;-18
2021/03/31 13:05:14;;;;;;;1.38;0.80;;;;;;;;;;5047940;28;20463;-23
2021/03/31 13:07:39;;;;;;;0.80;0.73;;;;;;;;;;5048644;28;20021;-17
2021/03/31 13:10:07;;;;;;;2.28;1.27;;;;;;;;;;5048169;28;20021;-17
2021/03/31 13:26:00;;;;;;;4.40;1.10;;;;;;;;;;5067323;28;20075;-18
2021/03/31 13:30:45;;;;;;;3.78;1.77;;;;;;;;;;5067614;28;20470;-18
2021/03/31 13:35:48;;;;;;;3.55;1.75;;;;;;;;;;5068025;28;20024;-18
2021/03/31 13:38:23;;;;;;;3.53;1.02;;;;;;;;;;5067581;28;20794;-18
2021/03/31 13:40:49;;;;;;;2.38;0.98;;;;;;;;;;5066374;28;20388;-18
2021/03/31 13:43:14;;;;;;;3.50;1.33;;;;;;;;;;5068006;28;20031;-18
2021/03/31 13:45:40;;;;;;;5.40;1.98;;;;;;;;;;5066830;28;20025;-19
2021/03/31 13:48:15;;;;;;;7.68;1.35;;;;;;;;;;5055136;28;20088;-19
2021/03/31 13:50:41;;;;;;;2.50;1.55;;;;;;;;;;5064919;28;20387;-18
2021/03/31 13:53:07;;;;;;;2.63;1.20;;;;;;;;;;5071286;28;20025;-18
2021/03/31 13:55:36;;;;;;;1.08;0.90;;;;;;;;;;5071262;28;20418;-17
2021/03/31 13:58:03;;;;;;;5.68;1.90;;;;;;;;;;5071387;28;20604;-18
2021/03/31 14:00:29;;;;;;;7.32;2.42;;;;;;;;;;5069764;28;20041;-18
2021/03/31 14:02:55;;;;;;;3.63;1.45;;;;;;;;;;5071026;28;20020;-17
2021/03/31 14:05:21;;;;;;;2.95;1.35;;;;;;;;;;5069937;28;20102;-17
2021/03/31 14:07:47;;;;;;;2.25;1.25;;;;;;;;;;5069569;28;20531;-18
2021/03/31 14:10:13;;;;;;;8.25;2.28;;;;;;;;;;5070814;28;20063;-18
2021/03/31 14:12:38;;;;;;;4.68;1.80;;;;;;;;;;5069385;28;20022;-18
2021/03/31 14:15:05;;;;;;;1.85;0.70;;;;;;;;;;5060608;28;20116;-18
2021/03/31 14:17:31;;;;;;;4.05;1.83;;;;;;;;;;5050901;28;20404;-18
2021/03/31 14:20:06;;;;;;;4.97;1.75;;;;;;;;;;5051065;28;20041;-18
2021/03/31 14:22:31;;;;;;;3.55;1.73;;;;;;;;;;5065765;28;20033;-18
2021/03/31 14:24:59;;;;;;;3.90;2.30;;;;;;;;;;5073594;28;20535;-17
2021/03/31 14:27:24;;;;;;;4.50;1.75;;;;;;;;;;5073977;28;20052;-18
2021/03/31 14:29:50;;;;;;;0.65;0.43;;;;;;;;;;5074667;28;20386;-18
2021/03/31 14:32:17;;;;;;;2.00;1.13;;;;;;;;;;5074608;28;20029;-18
2021/03/31 14:34:43;;;;;;;2.10;1.17;;;;;;;;;;5074178;28;20502;-17
2021/03/31 14:37:08;;;;;;;4.35;1.23;;;;;;;;;;5073179;28;20029;-17
2021/03/31 14:39:35;;;;;;;2.63;1.60;;;;;;;;;;5074168;28;20040;-18
2021/03/31 14:42:01;;;;;;;2.83;1.17;;;;;;;;;;5073953;28;20065;-17
2021/03/31 14:44:26;;;;;;;4.13;1.73;;;;;;;;;;5074341;28;20119;-18
2021/03/31 14:46:52;;;;;;;3.15;1.73;;;;;;;;;;5073835;28;20063;-17
2021/03/31 14:49:18;;;;;;;1.70;0.98;;;;;;;;;;5074171;28;20024;-17
2021/03/31 14:59:41;;;;;;;2.63;1.23;;;;;;;;;;5073505;28;20028;-17
2021/03/31 15:02:06;;;;;;;2.40;1.13;;;;;;;;;;5073912;28;20477;-18
2021/03/31 15:04:31;;;;;;;4.35;1.88;;;;;;;;;;5073706;28;20108;-17
2021/03/31 15:06:57;;;;;;;2.88;1.85;;;;;;;;;;5073440;28;20459;-17
2021/03/31 15:09:23;;;;;;;0.22;0.05;;;;;;;;;;5073712;28;20024;-18
2021/03/31 15:11:48;;;;;;;4.18;2.25;;;;;;;;;;5073576;28;20028;-17
2021/03/31 15:14:13;;;;;;;1.58;1.27;;;;;;;;;;5073474;28;20019;-18
2021/03/31 15:16:40;;;;;;;3.60;1.58;;;;;;;;;;5073746;28;20031;-18
2021/03/31 15:19:11;;;;;;;5.10;1.98;;;;;;;;;;5073373;28;20027;-17
2021/03/31 15:21:44;;;;;;;3.47;1.42;;;;;;;;;;5073378;28;20104;-17
2021/03/31 15:24:10;;;;;;;7.55;2.92;;;;;;;;;;5073436;28;20032;-20
2021/03/31 15:26:35;;;;;;;7.03;2.22;;;;;;;;;;5071812;28;20648;-18
2021/03/31 15:29:01;;;;;;;4.82;2.20;;;;;;;;;;5073407;28;20025;-17
2021/03/31 15:31:27;;;;;;;2.55;2.25;;;;;;;;;;5073434;28;20491;-18
2021/03/31 15:33:53;;;;;;;4.32;2.00;;;;;;;;;;5073287;28;20418;-18